Time;durP1;ratioP1;P1;durP2;ratioP2;P2;SDS_P1;SDS_P2;PMS_P1;PMS_P2;Temp;Humidity;BMP_temperature;BMP_pressure;BME280_temperature;BME280_humidity;BME280_pressure;Samples;Min_cycle;Max_cycle;Signal;HPM_P1;HPM_P2
2023/08/12 00:01:35;;;;;;;8.70;8.07;;;;;;;20.32;90.00;101463.91;4996909;28;20237;-70
2023/08/12 00:04:02;;;;;;;9.40;8.70;;;;;;;20.31;89.64;101467.63;4997260;28;20212;-71
2023/08/12 00:06:28;;;;;;;9.07;8.50;;;;;;;20.31;89.67;101467.63;4996843;28;20225;-71
2023/08/12 00:08:55;;;;;;;7.47;7.17;;;;;;;20.30;89.96;101461.38;4996807;28;20189;-71
2023/08/12 00:11:21;;;;;;;10.17;9.57;;;;;;;20.28;89.58;101460.72;4996800;28;20624;-71
2023/08/12 00:13:48;;;;;;;8.90;8.37;;;;;;;20.28;89.59;101466.13;4996845;28;20209;-71
2023/08/12 00:16:14;;;;;;;10.40;9.70;;;;;;;20.26;89.50;101451.06;4996651;28;20224;-71
2023/08/12 00:18:41;;;;;;;7.30;7.00;;;;;;;20.25;89.88;101461.09;4996897;28;20617;-71
2023/08/12 00:21:09;;;;;;;9.83;9.33;;;;;;;20.25;89.79;101455.66;4996545;28;20236;-71
2023/08/12 00:23:40;;;;;;;8.33;7.77;;;;;;;20.25;89.84;101460.22;4996389;28;20217;-71
2023/08/12 00:26:07;;;;;;;11.17;10.27;;;;;;;20.25;90.01;101457.53;4996723;28;20671;-71
2023/08/12 00:28:34;;;;;;;13.23;11.90;;;;;;;20.25;89.65;101452.94;4996445;28;20561;-70
2023/08/12 00:31:01;;;;;;;7.17;6.93;;;;;;;20.25;89.96;101452.09;4996586;28;20205;-71
2023/08/12 00:33:27;;;;;;;8.87;8.37;;;;;;;20.25;89.47;101457.53;4995022;28;20284;-70
2023/08/12 00:35:54;;;;;;;12.40;11.47;;;;;;;20.25;90.03;101458.38;4996526;28;20189;-70
2023/08/12 00:38:21;;;;;;;13.03;11.30;;;;;;;20.22;89.68;101453.34;4996462;28;20594;-70
2023/08/12 00:40:47;;;;;;;10.87;9.80;;;;;;;20.22;89.72;101442.47;4996187;28;20652;-70
2023/08/12 00:43:14;;;;;;;9.07;8.47;;;;;;;20.20;90.16;101441.81;4996363;28;20259;-71
2023/08/12 00:45:41;;;;;;;10.47;9.60;;;;;;;20.23;89.62;101452.31;4994857;28;20193;-70
2023/08/12 00:48:08;;;;;;;11.73;10.63;;;;;;;20.32;89.09;101445.72;4996076;28;20185;-70
2023/08/12 00:50:39;;;;;;;10.30;9.20;;;;;;;20.25;89.77;101450.22;4995654;28;20194;-70
2023/08/12 00:53:06;;;;;;;9.27;8.77;;;;;;;20.20;89.84;101441.00;4995729;28;20602;-70
2023/08/12 00:55:35;;;;;;;10.73;10.07;;;;;;;20.17;90.16;101435.94;4996114;28;20570;-71
2023/08/12 00:58:03;;;;;;;8.93;8.40;;;;;;;20.18;89.88;101434.91;4994589;28;20256;-71
2023/08/12 01:00:31;;;;;;;10.57;9.97;;;;;;;20.16;90.18;101432.38;4996363;28;20193;-71
2023/08/12 01:03:01;;;;;;;13.80;12.47;;;;;;;20.18;89.87;101440.34;4996097;28;20165;-71
2023/08/12 01:05:30;;;;;;;9.93;9.30;;;;;;;20.15;89.89;101429.88;4995655;28;20248;-71
2023/08/12 01:07:56;;;;;;;11.70;10.80;;;;;;;20.15;90.41;101430.72;4995258;28;20201;-71
2023/08/12 01:10:29;;;;;;;12.83;11.43;;;;;;;20.14;90.21;101423.63;4995812;28;20212;-71
2023/08/12 01:13:25;;;;;;;9.67;9.03;;;;;;;20.14;90.09;101414.63;4995532;28;20603;-71
2023/08/12 01:15:55;;;;;;;8.30;7.83;;;;;;;20.13;90.08;101418.38;4995803;28;20197;-71
2023/08/12 01:18:24;;;;;;;8.10;7.90;;;;;;;20.14;90.45;101417.34;4995558;28;20184;-71
2023/08/12 01:20:53;;;;;;;10.43;9.77;;;;;;;20.12;90.39;101420.25;4995409;28;20658;-71
2023/08/12 01:23:20;;;;;;;9.43;9.00;;;;;;;20.11;89.92;101420.47;4995333;28;20600;-71
2023/08/12 01:25:46;;;;;;;11.77;10.80;;;;;;;20.10;90.23;101419.63;4994126;28;20193;-71
2023/08/12 01:28:13;;;;;;;15.23;12.87;;;;;;;20.13;90.14;101423.81;4994071;28;20611;-71
2023/08/12 01:30:51;;;;;;;10.87;10.07;;;;;;;20.11;90.14;101420.47;4995145;28;20279;-71
2023/08/12 01:33:32;;;;;;;8.83;8.37;;;;;;;20.08;90.14;101416.25;4993916;28;20217;-71
2023/08/12 01:36:13;;;;;;;9.83;9.33;;;;;;;20.08;90.03;101417.09;4993957;28;20216;-71
2023/08/12 01:38:39;;;;;;;12.43;11.60;;;;;;;20.05;90.35;101401.22;4993923;28;20251;-71
2023/08/12 01:41:09;;;;;;;10.93;10.13;;;;;;;20.04;90.37;101399.53;4993852;28;20197;-71
2023/08/12 01:43:36;;;;;;;10.47;9.93;;;;;;;20.03;90.72;101397.84;4995219;28;20255;-71
2023/08/12 01:46:03;;;;;;;10.40;9.77;;;;;;;20.01;90.52;101391.78;4993763;28;20610;-71
2023/08/12 01:48:29;;;;;;;13.20;12.00;;;;;;;20.01;90.24;101391.78;4995223;28;20556;-71
2023/08/12 01:50:56;;;;;;;12.73;11.70;;;;;;;19.98;90.79;101394.91;4994790;28;20263;-70
2023/08/12 01:53:22;;;;;;;21.63;15.13;;;;;;;19.99;90.24;101391.13;4993510;28;20196;-71
2023/08/12 01:55:50;;;;;;;12.30;11.27;;;;;;;19.99;91.11;101393.84;4993562;28;20313;-71
2023/08/12 01:58:17;;;;;;;13.43;12.07;;;;;;;20.02;90.31;101392.63;4993505;28;20292;-71
2023/08/12 02:00:43;;;;;;;18.23;14.23;;;;;;;20.01;90.66;101394.50;4993459;28;20197;-71
2023/08/12 02:03:10;;;;;;;14.13;12.73;;;;;;;20.00;90.66;101395.53;4994344;28;20537;-70
2023/08/12 02:05:40;;;;;;;15.33;13.00;;;;;;;20.00;91.13;101390.09;4993425;28;20578;-71
2023/08/12 02:08:07;;;;;;;19.20;14.20;;;;;;;20.01;90.70;101390.94;4993337;28;20204;-70
2023/08/12 02:10:34;;;;;;;13.53;12.23;;;;;;;20.01;90.97;101391.78;4994476;28;20296;-70
2023/08/12 02:13:02;;;;;;;13.30;11.97;;;;;;;20.03;91.11;101386.13;4994546;28;20568;-70
2023/08/12 02:15:29;;;;;;;16.07;14.37;;;;;;;20.03;90.89;101380.69;4993150;28;20217;-71
2023/08/12 02:17:55;;;;;;;13.73;12.30;;;;;;;20.05;91.07;101386.78;4994676;28;20189;-71
2023/08/12 02:20:22;;;;;;;11.70;10.70;;;;;;;20.06;91.03;101386.59;4993134;28;20185;-71
2023/08/12 02:22:48;;;;;;;10.33;9.50;;;;;;;20.06;90.99;101377.63;4994336;28;20235;-71
2023/08/12 02:25:15;;;;;;;15.83;13.10;;;;;;;20.06;91.08;101369.47;4994234;28;20213;-71
2023/08/12 02:27:42;;;;;;;16.90;13.73;;;;;;;20.07;91.46;101369.25;4994801;28;20189;-71
2023/08/12 02:30:09;;;;;;;20.23;17.23;;;;;;;20.06;91.71;101374.91;4994410;28;20197;-71
2023/08/12 02:32:35;;;;;;;13.00;11.93;;;;;;;20.06;91.15;101369.47;4994450;28;20202;-71
2023/08/12 02:35:03;;;;;;;14.90;13.50;;;;;;;20.07;91.33;101360.28;4992842;28;20696;-71
2023/08/12 02:37:29;;;;;;;20.20;15.97;;;;;;;20.05;91.44;101356.94;4994635;28;20189;-71
2023/08/12 02:39:56;;;;;;;20.13;15.83;;;;;;;20.05;91.76;101352.34;4992838;28;20199;-71
2023/08/12 02:42:22;;;;;;;14.47;12.23;;;;;;;20.03;91.65;101357.13;4992841;28;20604;-71
2023/08/12 02:44:49;;;;;;;19.30;15.97;;;;;;;20.03;91.70;101354.41;4994045;28;20216;-71
2023/08/12 02:47:15;;;;;;;13.67;12.23;;;;;;;20.01;91.32;101347.50;4994001;28;20256;-71
2023/08/12 02:49:43;;;;;;;14.63;13.13;;;;;;;20.01;91.43;101345.63;4992690;28;20575;-71
2023/08/12 02:52:10;;;;;;;17.23;14.43;;;;;;;20.02;91.66;101355.47;4993855;28;20205;-71
2023/08/12 02:54:36;;;;;;;20.80;17.27;;;;;;;20.03;91.98;101350.84;4993860;28;20220;-71
2023/08/12 02:57:03;;;;;;;19.33;15.70;;;;;;;20.02;91.54;101346.47;4992648;28;20288;-71
2023/08/12 02:59:30;;;;;;;22.57;17.60;;;;;;;20.04;91.65;101341.66;4993866;28;20197;-70
2023/08/12 03:01:56;;;;;;;30.87;20.87;;;;;;;20.01;92.06;101333.94;4992599;28;20197;-70
2023/08/12 03:04:22;;;;;;;33.73;20.30;;;;;;;19.97;92.32;101336.22;4994323;28;20256;-71
2023/08/12 03:06:49;;;;;;;30.93;20.23;;;;;;;19.95;92.02;101332.00;4992802;28;20204;-71
2023/08/12 03:09:15;;;;;;;24.33;18.47;;;;;;;19.95;92.53;101330.13;4992554;28;20200;-71
2023/08/12 03:11:43;;;;;;;16.57;13.70;;;;;;;19.97;92.41;101327.22;4992969;28;20217;-71
2023/08/12 03:14:12;;;;;;;18.03;14.83;;;;;;;19.97;92.20;101324.50;4993067;28;20216;-70
2023/08/12 03:16:38;;;;;;;17.60;15.47;;;;;;;19.99;92.30;101327.84;4998012;28;20552;-70
2023/08/12 03:19:05;;;;;;;15.83;13.97;;;;;;;20.00;92.12;101327.66;4996449;28;20252;-70
2023/08/12 03:21:34;;;;;;;14.77;12.87;;;;;;;20.02;92.47;101317.47;4996429;28;20196;-70
2023/08/12 03:24:00;;;;;;;15.60;13.97;;;;;;;20.02;92.54;101319.34;4997571;28;20208;-71
2023/08/12 03:26:28;;;;;;;22.33;16.00;;;;;;;20.03;92.43;101318.28;4996341;28;20197;-71
2023/08/12 03:28:56;;;;;;;18.83;16.73;;;;;;;20.00;92.06;101310.53;4996336;28;20211;-71
2023/08/12 03:31:23;;;;;;;15.57;13.87;;;;;;;20.01;92.33;101314.94;4997421;28;20675;-70
2023/08/12 03:33:51;;;;;;;12.80;11.80;;;;;;;19.99;92.54;101312.41;4996403;28;20585;-71
2023/08/12 03:36:18;;;;;;;14.63;13.20;;;;;;;20.00;92.54;101315.97;4996230;28;20205;-71
2023/08/12 03:38:45;;;;;;;14.47;12.87;;;;;;;20.01;92.64;101309.50;4996110;28;20196;-71
2023/08/12 03:41:16;;;;;;;15.47;14.07;;;;;;;20.00;92.62;101311.38;4996595;28;20196;-71
2023/08/12 03:43:43;;;;;;;16.40;13.93;;;;;;;20.00;92.55;101305.09;4995966;28;20275;-71
2023/08/12 03:46:10;;;;;;;17.13;13.10;;;;;;;20.01;91.96;101301.38;4995983;28;20204;-71
2023/08/12 03:48:37;;;;;;;18.10;13.37;;;;;;;20.01;92.01;101302.19;4996832;28;20213;-71
2023/08/12 03:51:04;;;;;;;15.53;14.13;;;;;;;19.99;92.31;101304.25;4995805;28;20750;-71
2023/08/12 03:53:30;;;;;;;19.80;15.03;;;;;;;20.00;92.05;101300.53;4995879;28;20197;-71
2023/08/12 03:55:56;;;;;;;20.73;16.40;;;;;;;20.00;92.48;101305.09;4995799;28;20684;-71
2023/08/12 03:58:23;;;;;;;16.40;14.73;;;;;;;20.02;92.13;101305.75;4996600;28;20563;-71
2023/08/12 04:00:50;;;;;;;17.70;13.67;;;;;;;20.00;92.41;101300.53;4995698;28;20193;-71
2023/08/12 04:03:16;;;;;;;14.73;13.20;;;;;;;20.00;92.45;101296.97;4997109;28;20189;-71
2023/08/12 04:05:52;;;;;;;14.80;13.43;;;;;;;20.00;92.48;101289.66;4995604;28;20208;-71
2023/08/12 04:08:21;;;;;;;21.63;15.80;;;;;;;20.02;92.33;101298.47;4997415;28;20181;-71
2023/08/12 04:10:47;;;;;;;23.13;16.17;;;;;;;20.01;92.67;101291.34;4997244;28;20680;-71
2023/08/12 04:13:14;;;;;;;16.37;12.97;;;;;;;20.01;92.33;101296.78;4996949;28;20197;-71
2023/08/12 04:15:41;;;;;;;16.33;13.50;;;;;;;20.01;92.51;101301.38;4996707;28;20235;-71
2023/08/12 04:18:08;;;;;;;22.57;16.33;;;;;;;19.99;92.63;101287.97;4996654;28;20193;-71
2023/08/12 04:20:34;;;;;;;23.17;18.03;;;;;;;19.95;92.89;101280.44;4995912;28;20220;-70
2023/08/12 04:23:00;;;;;;;19.50;15.73;;;;;;;19.92;92.84;101284.41;4995305;28;20656;-70
2023/08/12 04:25:27;;;;;;;18.13;15.57;;;;;;;19.93;92.55;101280.66;4996195;28;20227;-70
2023/08/12 04:27:53;;;;;;;19.03;15.07;;;;;;;19.94;92.29;101274.16;4995238;28;20208;-70
2023/08/12 04:30:21;;;;;;;15.87;14.20;;;;;;;19.97;92.80;101281.09;4995702;28;20228;-70
2023/08/12 04:32:48;;;;;;;15.10;13.57;;;;;;;19.97;92.52;101273.78;4995083;28;20217;-70
2023/08/12 04:35:15;;;;;;;18.80;14.00;;;;;;;19.97;92.36;101271.06;4995238;28;20214;-71
2023/08/12 04:37:42;;;;;;;14.83;13.40;;;;;;;19.96;92.36;101255.81;4995075;28;20182;-71
2023/08/12 04:40:09;;;;;;;13.83;12.40;;;;;;;19.96;92.43;101254.97;4994981;28;20289;-71
2023/08/12 04:42:36;;;;;;;16.60;12.73;;;;;;;19.97;93.00;101252.06;4996205;28;20217;-71
2023/08/12 04:45:03;;;;;;;16.23;14.60;;;;;;;19.97;92.80;101246.63;4995071;28;20216;-71
2023/08/12 04:47:31;;;;;;;21.13;16.40;;;;;;;19.96;92.53;101247.69;4994862;28;20205;-71
2023/08/12 04:49:58;;;;;;;14.23;12.23;;;;;;;19.95;92.47;101242.44;4994797;28;20194;-71
2023/08/12 04:52:26;;;;;;;15.13;13.83;;;;;;;19.95;92.46;101242.44;4994694;28;20263;-71
2023/08/12 04:54:53;;;;;;;16.23;12.07;;;;;;;19.97;92.91;101243.09;4995952;28;20268;-71
2023/08/12 04:57:21;;;;;;;16.17;12.33;;;;;;;19.95;92.54;101243.28;4995277;28;20282;-70
2023/08/12 04:59:48;;;;;;;16.47;14.87;;;;;;;19.91;93.05;101236.56;4994607;28;20197;-70
2023/08/12 05:02:15;;;;;;;17.20;15.40;;;;;;;19.91;92.73;101239.28;4994857;28;20652;-70
2023/08/12 05:04:41;;;;;;;17.33;13.17;;;;;;;19.92;92.63;101232.84;4994498;28;20252;-71
2023/08/12 05:07:08;;;;;;;13.87;12.67;;;;;;;19.95;93.20;101240.56;4996026;28;20272;-71
2023/08/12 05:09:35;;;;;;;13.43;12.13;;;;;;;19.97;92.59;101235.78;4995254;28;20197;-71
2023/08/12 05:12:01;;;;;;;13.37;12.13;;;;;;;19.98;92.18;101237.47;4995472;28;20232;-71
2023/08/12 05:14:28;;;;;;;15.97;13.63;;;;;;;20.00;92.73;101229.09;4994311;28;20217;-71
2023/08/12 05:16:54;;;;;;;15.93;14.43;;;;;;;19.98;92.77;101226.63;4994643;28;20200;-71
2023/08/12 05:19:20;;;;;;;17.73;15.73;;;;;;;20.00;93.34;101232.66;4996298;28;20235;-71
2023/08/12 05:21:47;;;;;;;17.07;15.33;;;;;;;20.03;92.94;101234.97;4994243;28;20189;-71
2023/08/12 05:24:15;;;;;;;22.73;15.77;;;;;;;20.06;93.34;101226.44;4994115;28;20217;-71
2023/08/12 05:26:41;;;;;;;17.37;13.50;;;;;;;20.10;93.34;101228.75;4994342;28;20682;-71
2023/08/12 05:29:08;;;;;;;16.40;14.30;;;;;;;20.13;93.28;101237.31;4995833;28;20241;-71
2023/08/12 05:31:34;;;;;;;13.83;12.10;;;;;;;20.15;93.52;101232.53;4995486;28;20267;-71
2023/08/12 05:34:00;;;;;;;13.87;12.30;;;;;;;20.18;93.35;101231.28;4995140;28;20209;-71
2023/08/12 05:36:27;;;;;;;15.60;14.10;;;;;;;20.20;93.53;101226.50;4995153;28;20248;-71
2023/08/12 05:38:53;;;;;;;14.97;13.33;;;;;;;20.21;93.29;101230.88;4994781;28;20605;-71
2023/08/12 05:41:20;;;;;;;14.77;13.30;;;;;;;20.21;93.08;101225.44;4994015;28;20189;-71
2023/08/12 05:43:48;;;;;;;14.40;12.43;;;;;;;20.23;93.53;101229.66;4994979;28;20240;-71
2023/08/12 05:46:14;;;;;;;17.53;12.63;;;;;;;20.23;92.80;101224.22;4994975;28;20195;-71
2023/08/12 05:48:41;;;;;;;12.67;11.77;;;;;;;20.23;92.99;101221.50;4995204;28;20197;-71
2023/08/12 05:51:07;;;;;;;13.70;12.47;;;;;;;20.22;92.76;101218.97;4995083;28;20244;-71
2023/08/12 05:53:34;;;;;;;12.43;11.27;;;;;;;20.20;93.21;101218.34;4994804;28;20575;-71
2023/08/12 05:56:00;;;;;;;14.40;13.13;;;;;;;20.21;93.21;101222.72;4995030;28;20566;-71
2023/08/12 05:58:26;;;;;;;16.77;14.57;;;;;;;20.20;93.25;101218.34;4995302;28;20200;-71
2023/08/12 06:00:53;;;;;;;14.77;13.40;;;;;;;20.20;93.21;101212.94;4994736;28;20193;-71
2023/08/12 06:03:19;;;;;;;14.80;13.40;;;;;;;20.22;92.79;101210.84;4994568;28;20187;-71
2023/08/12 06:05:46;;;;;;;15.17;13.60;;;;;;;20.23;92.67;101212.50;4994563;28;20196;-71
2023/08/12 06:08:13;;;;;;;14.40;12.90;;;;;;;20.23;92.99;101210.66;4995110;28;20203;-71
2023/08/12 06:10:40;;;;;;;22.00;16.60;;;;;;;20.23;92.85;101202.50;4994547;28;20197;-71
2023/08/12 06:13:07;;;;;;;19.87;15.83;;;;;;;20.22;93.44;101208.13;4994580;28;20684;-70
2023/08/12 06:15:33;;;;;;;18.87;15.10;;;;;;;20.22;93.37;101200.81;4994644;28;20699;-70
2023/08/12 06:18:00;;;;;;;16.93;14.83;;;;;;;20.21;92.85;101198.28;4994451;28;20197;-70
2023/08/12 06:20:27;;;;;;;17.30;14.13;;;;;;;20.19;92.83;101205.81;4994366;28;20193;-70
2023/08/12 06:22:53;;;;;;;14.33;12.67;;;;;;;20.19;93.31;101205.81;4994894;28;20236;-70
2023/08/12 06:25:20;;;;;;;11.57;10.47;;;;;;;20.19;92.96;101209.38;4994229;28;20271;-71
2023/08/12 06:27:47;;;;;;;19.83;14.07;;;;;;;20.18;93.12;101204.97;4994556;28;20189;-70
2023/08/12 06:30:14;;;;;;;14.10;12.67;;;;;;;20.16;92.93;101195.34;4994539;28;20185;-70
2023/08/12 06:32:41;;;;;;;12.33;11.30;;;;;;;20.17;93.20;101207.88;4994147;28;20213;-70
2023/08/12 06:35:07;;;;;;;16.43;14.70;;;;;;;20.14;93.11;101195.56;4994117;28;20205;-71
2023/08/12 06:37:34;;;;;;;14.27;12.70;;;;;;;20.16;93.19;101209.75;4994402;28;20193;-70
2023/08/12 06:40:00;;;;;;;15.83;14.33;;;;;;;20.14;93.38;101200.16;4994112;28;20755;-70
2023/08/12 06:42:27;;;;;;;17.00;15.30;;;;;;;20.11;93.33;101203.28;4994551;28;20636;-70
2023/08/12 06:44:56;;;;;;;16.07;14.50;;;;;;;20.11;92.64;101200.56;4993013;28;20209;-70
2023/08/12 06:47:22;;;;;;;15.40;14.13;;;;;;;20.11;92.84;101201.41;4994272;28;20201;-70
2023/08/12 06:49:49;;;;;;;19.17;13.90;;;;;;;20.08;92.95;101197.19;4993878;28;20197;-70
2023/08/12 06:52:16;;;;;;;15.27;13.70;;;;;;;20.05;93.01;101192.19;4993882;28;20618;-70
2023/08/12 06:54:42;;;;;;;14.20;13.37;;;;;;;20.05;92.98;101185.91;4993906;28;20622;-70
2023/08/12 06:57:08;;;;;;;14.07;13.17;;;;;;;20.05;93.38;101183.19;4993900;28;20239;-70
2023/08/12 06:59:35;;;;;;;13.70;12.63;;;;;;;20.04;93.32;101181.50;4993859;28;20229;-70
2023/08/12 07:02:01;;;;;;;13.80;12.50;;;;;;;20.06;92.99;101174.88;4994160;28;20595;-70
2023/08/12 07:04:28;;;;;;;14.80;13.63;;;;;;;20.06;92.75;101180.28;4993770;28;20268;-70
2023/08/12 07:06:55;;;;;;;12.93;12.20;;;;;;;20.04;92.87;101171.50;4994353;28;20240;-70
2023/08/12 07:09:21;;;;;;;12.80;11.67;;;;;;;20.03;92.63;101167.09;4993789;28;20193;-70
2023/08/12 07:11:48;;;;;;;12.20;11.17;;;;;;;20.02;92.70;101164.63;4993598;28;20687;-70
2023/08/12 07:14:14;;;;;;;10.50;9.63;;;;;;;20.00;92.84;101163.97;4993781;28;20287;-70
2023/08/12 07:16:40;;;;;;;12.03;11.17;;;;;;;20.00;93.11;101161.25;4994454;28;20197;-70
2023/08/12 07:19:07;;;;;;;12.13;11.40;;;;;;;20.01;93.14;101161.06;4993676;28;20243;-70
2023/08/12 07:21:33;;;;;;;11.57;10.87;;;;;;;19.99;93.29;101173.97;4993677;28;20534;-70
2023/08/12 07:24:00;;;;;;;12.83;11.67;;;;;;;20.01;93.13;101173.78;4993829;28;20221;-71
2023/08/12 07:26:30;;;;;;;9.97;9.57;;;;;;;20.06;93.17;101183.00;4993944;28;20189;-71
2023/08/12 07:28:56;;;;;;;10.67;10.10;;;;;;;20.06;92.91;101174.03;4994132;28;20316;-70
2023/08/12 07:31:23;;;;;;;11.57;10.63;;;;;;;20.08;93.00;101169.22;4993537;28;20602;-70
2023/08/12 07:33:50;;;;;;;10.60;10.07;;;;;;;20.12;92.84;101170.47;4993465;28;20232;-71
2023/08/12 07:36:16;;;;;;;10.00;9.53;;;;;;;20.07;92.50;101173.00;4993540;28;20193;-71
2023/08/12 07:38:42;;;;;;;10.27;9.90;;;;;;;20.07;92.67;101173.81;4994092;28;20228;-70
2023/08/12 07:41:09;;;;;;;12.10;10.97;;;;;;;20.07;92.40;101173.00;4993864;28;20178;-70
2023/08/12 07:43:35;;;;;;;10.63;10.20;;;;;;;20.12;92.93;101175.06;4993617;28;20260;-71
2023/08/12 07:46:02;;;;;;;10.10;9.63;;;;;;;20.12;92.51;101184.06;4993455;28;20236;-70
2023/08/12 07:48:36;;;;;;;9.83;9.17;;;;;;;20.08;93.24;101186.34;4998438;28;20550;-71
2023/08/12 07:51:02;;;;;;;9.43;8.90;;;;;;;20.10;92.73;101177.16;5000464;28;20212;-71
2023/08/12 07:53:29;;;;;;;7.80;7.43;;;;;;;20.13;92.93;101180.31;5000350;28;20217;-71
2023/08/12 07:55:55;;;;;;;8.20;7.57;;;;;;;20.16;92.19;101176.34;5002807;28;20311;-70
2023/08/12 07:58:22;;;;;;;7.70;6.30;;;;;;;20.15;92.61;101174.69;5003922;28;20197;-71
2023/08/12 08:00:53;;;;;;;8.50;6.90;;;;;;;20.14;92.34;101162.16;5013760;28;20192;-71
2023/08/12 08:03:19;;;;;;;7.13;6.90;;;;;;;20.19;92.51;101165.09;5016491;28;20674;-70
2023/08/12 08:05:47;;;;;;;6.93;6.73;;;;;;;20.21;92.41;101155.69;5016960;28;20184;-71
2023/08/12 08:08:13;;;;;;;7.57;7.23;;;;;;;20.26;92.44;101158.63;5016304;28;20180;-70
2023/08/12 08:10:40;;;;;;;9.43;9.00;;;;;;;20.31;92.25;101158.06;5016640;28;20542;-70
2023/08/12 08:13:06;;;;;;;7.47;7.17;;;;;;;20.28;92.15;101151.13;5016344;28;20212;-70
2023/08/12 08:15:33;;;;;;;7.67;7.37;;;;;;;20.25;92.18;101156.13;5016257;28;20697;-69
2023/08/12 08:17:59;;;;;;;7.33;7.13;;;;;;;20.27;91.95;101154.03;5016543;28;20184;-69
2023/08/12 08:20:29;;;;;;;8.00;7.80;;;;;;;20.25;91.96;101154.25;5016562;28;20201;-70
2023/08/12 08:22:55;;;;;;;8.40;7.83;;;;;;;20.25;91.61;101156.13;5016462;28;20231;-70
2023/08/12 08:25:22;;;;;;;8.50;8.00;;;;;;;20.29;91.50;101154.66;5016037;28;20208;-69
2023/08/12 08:27:48;;;;;;;7.90;7.80;;;;;;;20.26;91.85;101157.78;5016057;28;20189;-69
2023/08/12 08:30:15;;;;;;;8.30;8.00;;;;;;;20.27;91.68;101159.47;5016288;28;20239;-69
2023/08/12 08:32:41;;;;;;;9.03;8.37;;;;;;;20.28;91.47;101159.28;5016430;28;20208;-69
2023/08/12 08:35:08;;;;;;;8.53;8.13;;;;;;;20.31;91.44;101158.06;5016151;28;20209;-69
2023/08/12 08:37:34;;;;;;;8.97;8.53;;;;;;;20.31;91.31;101152.63;5015852;28;20204;-69
2023/08/12 08:40:00;;;;;;;8.77;8.40;;;;;;;20.34;91.85;101144.91;5016072;28;20582;-69
2023/08/12 08:42:31;;;;;;;9.67;9.37;;;;;;;20.34;91.78;101149.50;5015804;28;20208;-68
2023/08/12 08:45:01;;;;;;;9.23;8.67;;;;;;;20.35;91.39;101154.72;5015742;28;20625;-69
2023/08/12 08:47:28;;;;;;;8.10;7.83;;;;;;;20.37;91.17;101149.06;5015923;28;20180;-69
2023/08/12 08:49:58;;;;;;;8.03;7.43;;;;;;;20.38;91.38;101156.19;5015629;28;20671;-69
2023/08/12 08:52:25;;;;;;;7.90;7.40;;;;;;;20.48;91.40;101156.63;5015590;28;20247;-69
2023/08/12 08:54:52;;;;;;;6.93;6.80;;;;;;;20.45;91.20;101148.91;5015484;28;20217;-69
2023/08/12 08:57:19;;;;;;;7.20;6.50;;;;;;;20.44;91.31;101155.38;5016059;28;20243;-69
2023/08/12 08:59:50;;;;;;;7.97;6.87;;;;;;;20.46;91.58;101148.69;5015485;28;20259;-69
2023/08/12 09:02:24;;;;;;;5.83;5.60;;;;;;;20.48;91.42;101162.91;5015647;28;20173;-69
2023/08/12 09:04:53;;;;;;;5.93;5.60;;;;;;;20.57;91.29;101154.56;5015872;28;20222;-69
2023/08/12 09:07:20;;;;;;;5.60;5.50;;;;;;;20.56;91.32;101151.00;5015329;28;20247;-69
2023/08/12 09:09:52;;;;;;;5.90;5.50;;;;;;;20.55;91.16;101153.91;5015279;28;20246;-69
2023/08/12 09:12:20;;;;;;;5.20;4.83;;;;;;;20.56;91.30;101158.31;5014243;28;20212;-69
2023/08/12 09:14:46;;;;;;;5.77;5.67;;;;;;;20.59;91.18;101160.63;5015635;28;20267;-69
2023/08/12 09:17:14;;;;;;;6.00;5.70;;;;;;;20.56;91.61;101161.03;5015373;28;20239;-69
2023/08/12 09:19:40;;;;;;;6.07;5.97;;;;;;;20.69;90.70;101158.34;5015126;28;20247;-69
2023/08/12 09:22:09;;;;;;;6.20;6.10;;;;;;;20.63;91.02;101159.16;5015024;28;20192;-69
2023/08/12 09:24:36;;;;;;;5.80;5.70;;;;;;;20.60;90.86;101165.84;5014953;28;20242;-69
2023/08/12 09:27:04;;;;;;;5.70;5.60;;;;;;;20.60;90.76;101170.44;5014911;28;20193;-69
2023/08/12 09:29:35;;;;;;;5.93;5.67;;;;;;;20.63;90.67;101168.16;5015166;28;20189;-69
2023/08/12 09:32:12;;;;;;;5.43;5.33;;;;;;;20.64;90.83;101160.84;5015328;28;20235;-69
2023/08/12 09:34:51;;;;;;;5.10;5.00;;;;;;;20.65;90.00;101162.53;5014948;28;20697;-69
2023/08/12 09:37:18;;;;;;;5.10;4.90;;;;;;;20.58;90.66;101156.25;5014830;28;20230;-69
2023/08/12 09:39:46;;;;;;;4.70;4.60;;;;;;;20.61;90.34;101150.41;5014982;28;20587;-69
2023/08/12 09:42:12;;;;;;;4.90;4.70;;;;;;;20.60;90.65;101152.28;5015464;28;20239;-69
2023/08/12 09:44:41;;;;;;;4.70;4.60;;;;;;;20.61;90.27;101153.94;5014582;28;20230;-69
2023/08/12 09:47:10;;;;;;;4.73;4.63;;;;;;;20.63;90.67;101149.13;5014602;28;20189;-69
2023/08/12 09:49:39;;;;;;;5.33;5.23;;;;;;;20.67;90.41;101149.53;5014906;28;20286;-69
2023/08/12 09:52:06;;;;;;;5.20;4.93;;;;;;;20.66;90.48;101154.16;5014472;28;20192;-69
2023/08/12 09:54:37;;;;;;;4.87;4.77;;;;;;;20.70;90.15;101160.88;5014556;28;20209;-69
2023/08/12 09:57:08;;;;;;;4.97;4.77;;;;;;;20.69;90.08;101161.91;5014472;28;20235;-69
2023/08/12 09:59:35;;;;;;;4.20;4.20;;;;;;;20.72;90.33;101166.91;5014658;28;20235;-69
2023/08/12 10:02:07;;;;;;;5.30;4.50;;;;;;;20.68;90.27;101170.25;5014602;28;20649;-69
2023/08/12 10:04:39;;;;;;;4.77;4.67;;;;;;;20.74;89.92;101164.00;5014262;28;20212;-69
2023/08/12 10:07:06;;;;;;;4.73;4.63;;;;;;;20.68;90.16;101165.66;5014271;28;20235;-69
2023/08/12 10:09:33;;;;;;;4.10;4.00;;;;;;;20.67;90.33;101166.69;5014755;28;20625;-70
2023/08/12 10:12:01;;;;;;;4.70;4.60;;;;;;;20.65;90.31;101165.22;5014470;28;20549;-70
2023/08/12 10:14:28;;;;;;;5.13;4.93;;;;;;;20.63;90.76;101164.59;5014536;28;20282;-71
2023/08/12 10:16:55;;;;;;;4.47;4.40;;;;;;;20.60;90.60;101163.13;5014342;28;20189;-70
2023/08/12 10:19:31;;;;;;;5.10;4.60;;;;;;;20.73;90.89;101167.75;5014369;28;20631;-70
2023/08/12 10:21:59;;;;;;;3.87;3.87;;;;;;;20.72;91.04;101172.34;5013986;28;20193;-70
2023/08/12 10:24:29;;;;;;;4.50;4.40;;;;;;;20.72;91.39;101174.22;5013939;28;20209;-71
2023/08/12 10:26:55;;;;;;;4.60;4.60;;;;;;;20.84;91.21;101172.56;5014434;28;20192;-70
2023/08/12 10:29:25;;;;;;;5.83;4.63;;;;;;;20.80;91.64;101174.84;5014157;28;20222;-70
2023/08/12 10:31:52;;;;;;;5.17;4.93;;;;;;;20.82;91.88;101180.94;5013860;28;20184;-70
2023/08/12 10:34:22;;;;;;;4.53;4.43;;;;;;;20.95;92.50;101174.69;5013676;28;20220;-71
2023/08/12 10:36:57;;;;;;;4.90;4.67;;;;;;;20.97;91.59;101173.41;5014109;28;20243;-71
2023/08/12 10:39:32;;;;;;;4.50;4.40;;;;;;;21.05;92.82;101168.84;5014064;28;20616;-71
2023/08/12 10:41:59;;;;;;;5.13;5.03;;;;;;;21.08;91.85;101169.25;5013710;28;20193;-71
2023/08/12 10:44:40;;;;;;;4.93;4.93;;;;;;;21.14;92.34;101167.59;5013580;28;20209;-72
2023/08/12 10:47:10;;;;;;;4.27;4.27;;;;;;;21.11;93.19;101168.81;5014432;28;20196;-71
2023/08/12 10:49:48;;;;;;;4.93;4.80;;;;;;;21.23;91.47;101167.16;5013923;28;20264;-71
2023/08/12 10:52:44;;;;;;;5.80;5.50;;;;;;;21.25;91.19;101170.53;5014061;28;20176;-70
2023/08/12 10:55:25;;;;;;;6.30;5.83;;;;;;;21.27;91.83;101167.56;5012788;28;20257;-72
2023/08/12 10:57:57;;;;;;;6.20;5.60;;;;;;;21.50;90.57;101167.97;5014100;28;20528;-71
2023/08/12 11:00:26;;;;;;;5.57;5.47;;;;;;;21.41;89.04;101163.81;5013833;28;20185;-71
2023/08/12 11:02:54;;;;;;;5.13;5.00;;;;;;;21.48;89.34;101163.78;5013464;28;20242;-71
2023/08/12 11:05:22;;;;;;;4.40;4.37;;;;;;;21.52;88.74;101163.13;5013450;28;20586;-71
2023/08/12 11:08:00;;;;;;;4.77;4.60;;;;;;;21.52;88.06;101160.41;5013441;28;20188;-70
2023/08/12 11:10:31;;;;;;;4.50;4.40;;;;;;;21.42;88.35;101160.03;5013695;28;20259;-70
2023/08/12 11:13:01;;;;;;;4.60;4.30;;;;;;;21.38;88.05;101151.47;5013346;28;20209;-70
2023/08/12 11:15:41;;;;;;;4.53;4.33;;;;;;;21.34;88.28;101154.81;5013306;28;20225;-70
2023/08/12 11:18:14;;;;;;;4.67;4.57;;;;;;;21.41;88.65;101148.31;5013407;28;20172;-70
2023/08/12 11:20:40;;;;;;;4.07;3.77;;;;;;;21.40;88.98;101152.06;5013606;28;20628;-69